sensor_id;sensor_type;location;lat;lon;timestamp;temperature;humidity
16253;DHT22;8234;41.480;2.306;2023-02-03T00:04:28;7.40;99.90
16253;DHT22;8234;41.480;2.306;2023-02-03T00:14:33;7.40;99.90
16253;DHT22;8234;41.480;2.306;2023-02-03T00:24:39;7.50;99.90
16253;DHT22;8234;41.480;2.306;2023-02-03T00:34:44;7.70;99.90
16253;DHT22;8234;41.480;2.306;2023-02-03T00:44:48;8.00;99.90
16253;DHT22;8234;41.480;2.306;2023-02-03T00:54:53;8.50;99.90
16253;DHT22;8234;41.480;2.306;2023-02-03T01:04:57;8.60;99.90
16253;DHT22;8234;41.480;2.306;2023-02-03T01:15:03;8.30;99.90
16253;DHT22;8234;41.480;2.306;2023-02-03T01:25:08;8.40;99.90
16253;DHT22;8234;41.480;2.306;2023-02-03T01:35:13;8.40;99.90
16253;DHT22;8234;41.480;2.306;2023-02-03T01:45:18;8.20;99.90
16253;DHT22;8234;41.480;2.306;2023-02-03T01:55:28;8.70;99.90
16253;DHT22;8234;41.480;2.306;2023-02-03T02:05:37;8.40;99.90
16253;DHT22;8234;41.480;2.306;2023-02-03T02:15:49;8.50;99.90
16253;DHT22;8234;41.480;2.306;2023-02-03T02:36:31;8.70;99.90
16253;DHT22;8234;41.480;2.306;2023-02-03T02:46:40;8.40;99.90
16253;DHT22;8234;41.480;2.306;2023-02-03T02:56:50;8.00;99.90
16253;DHT22;8234;41.480;2.306;2023-02-03T03:06:58;7.80;99.90
16253;DHT22;8234;41.480;2.306;2023-02-03T03:17:06;7.30;99.90
16253;DHT22;8234;41.480;2.306;2023-02-03T03:27:13;7.30;99.90
16253;DHT22;8234;41.480;2.306;2023-02-03T03:37:25;6.80;99.90
16253;DHT22;8234;41.480;2.306;2023-02-03T03:47:34;6.70;99.90
16253;DHT22;8234;41.480;2.306;2023-02-03T03:57:43;7.80;99.90
16253;DHT22;8234;41.480;2.306;2023-02-03T04:07:48;8.40;99.90
16253;DHT22;8234;41.480;2.306;2023-02-03T04:17:53;8.40;99.90
16253;DHT22;8234;41.480;2.306;2023-02-03T04:27:58;8.20;99.90
16253;DHT22;8234;41.480;2.306;2023-02-03T04:38:03;8.20;99.90
16253;DHT22;8234;41.480;2.306;2023-02-03T04:48:08;7.90;99.90
16253;DHT22;8234;41.480;2.306;2023-02-03T04:58:13;7.70;99.90
16253;DHT22;8234;41.480;2.306;2023-02-03T05:08:17;7.30;99.90
16253;DHT22;8234;41.480;2.306;2023-02-03T05:18:23;7.40;99.90
16253;DHT22;8234;41.480;2.306;2023-02-03T05:28:27;7.70;99.90
16253;DHT22;8234;41.480;2.306;2023-02-03T05:38:32;8.20;99.90
16253;DHT22;8234;41.480;2.306;2023-02-03T05:48:37;8.50;99.90
16253;DHT22;8234;41.480;2.306;2023-02-03T05:58:42;9.00;99.90
16253;DHT22;8234;41.480;2.306;2023-02-03T06:08:46;8.90;99.90
16253;DHT22;8234;41.480;2.306;2023-02-03T06:18:52;8.40;99.90
16253;DHT22;8234;41.480;2.306;2023-02-03T06:28:55;7.80;99.90
16253;DHT22;8234;41.480;2.306;2023-02-03T06:39:01;7.90;99.90
16253;DHT22;8234;41.480;2.306;2023-02-03T06:49:05;7.60;99.90
16253;DHT22;8234;41.480;2.306;2023-02-03T06:59:11;7.80;99.90
16253;DHT22;8234;41.480;2.306;2023-02-03T07:09:15;7.60;99.90
16253;DHT22;8234;41.480;2.306;2023-02-03T07:19:20;8.00;99.90
16253;DHT22;8234;41.480;2.306;2023-02-03T07:29:24;7.80;99.90
16253;DHT22;8234;41.480;2.306;2023-02-03T07:39:30;7.40;99.90
16253;DHT22;8234;41.480;2.306;2023-02-03T07:49:34;7.20;99.90
16253;DHT22;8234;41.480;2.306;2023-02-03T07:59:40;7.80;99.90
16253;DHT22;8234;41.480;2.306;2023-02-03T08:09:43;8.20;99.90
16253;DHT22;8234;41.480;2.306;2023-02-03T08:19:49;8.60;99.90
16253;DHT22;8234;41.480;2.306;2023-02-03T08:29:53;9.20;99.90
16253;DHT22;8234;41.480;2.306;2023-02-03T08:39:58;9.80;99.90
16253;DHT22;8234;41.480;2.306;2023-02-03T08:50:03;10.30;99.90
16253;DHT22;8234;41.480;2.306;2023-02-03T09:00:10;10.70;99.90
16253;DHT22;8234;41.480;2.306;2023-02-03T09:10:14;11.20;99.90
16253;DHT22;8234;41.480;2.306;2023-02-03T09:20:19;11.80;99.90
16253;DHT22;8234;41.480;2.306;2023-02-03T09:30:25;12.10;99.90
16253;DHT22;8234;41.480;2.306;2023-02-03T09:40:33;12.20;99.90
16253;DHT22;8234;41.480;2.306;2023-02-03T09:50:39;12.50;99.90
16253;DHT22;8234;41.480;2.306;2023-02-03T10:00:47;12.70;99.90
16253;DHT22;8234;41.480;2.306;2023-02-03T10:10:57;13.00;99.90
16253;DHT22;8234;41.480;2.306;2023-02-03T10:21:16;13.20;99.90
16253;DHT22;8234;41.480;2.306;2023-02-03T10:31:22;13.30;99.90
16253;DHT22;8234;41.480;2.306;2023-02-03T10:41:28;13.90;99.90
16253;DHT22;8234;41.480;2.306;2023-02-03T10:51:37;14.20;99.90
16253;DHT22;8234;41.480;2.306;2023-02-03T11:01:46;14.80;99.90
16253;DHT22;8234;41.480;2.306;2023-02-03T11:12:04;15.30;99.90
16253;DHT22;8234;41.480;2.306;2023-02-03T11:22:10;16.20;99.90
16253;DHT22;8234;41.480;2.306;2023-02-03T11:32:18;16.70;99.90
16253;DHT22;8234;41.480;2.306;2023-02-03T11:42:24;17.30;99.90
16253;DHT22;8234;41.480;2.306;2023-02-03T11:52:44;18.00;99.90
16253;DHT22;8234;41.480;2.306;2023-02-03T12:13:53;18.20;99.90
16253;DHT22;8234;41.480;2.306;2023-02-03T12:24:06;18.30;99.90
16253;DHT22;8234;41.480;2.306;2023-02-03T12:34:16;18.50;99.90
16253;DHT22;8234;41.480;2.306;2023-02-03T12:44:27;19.20;99.90
16253;DHT22;8234;41.480;2.306;2023-02-03T12:54:40;20.00;99.90
16253;DHT22;8234;41.480;2.306;2023-02-03T13:04:52;19.80;99.90
16253;DHT22;8234;41.480;2.306;2023-02-03T13:15:05;20.60;99.90
16253;DHT22;8234;41.480;2.306;2023-02-03T13:25:19;20.30;99.90
16253;DHT22;8234;41.480;2.306;2023-02-03T13:35:43;19.40;99.90
16253;DHT22;8234;41.480;2.306;2023-02-03T13:45:56;18.90;99.90
16253;DHT22;8234;41.480;2.306;2023-02-03T13:56:01;19.30;99.90
16253;DHT22;8234;41.480;2.306;2023-02-03T14:16:34;19.70;99.90
16253;DHT22;8234;41.480;2.306;2023-02-03T14:26:41;20.60;99.90
16253;DHT22;8234;41.480;2.306;2023-02-03T14:36:51;20.70;99.90
16253;DHT22;8234;41.480;2.306;2023-02-03T14:47:09;21.60;99.90
16253;DHT22;8234;41.480;2.306;2023-02-03T14:57:25;21.40;99.90
16253;DHT22;8234;41.480;2.306;2023-02-03T15:07:37;21.00;99.90
16253;DHT22;8234;41.480;2.306;2023-02-03T15:17:47;21.40;99.90
16253;DHT22;8234;41.480;2.306;2023-02-03T15:27:52;21.20;99.90
16253;DHT22;8234;41.480;2.306;2023-02-03T15:37:59;21.40;99.90
16253;DHT22;8234;41.480;2.306;2023-02-03T15:48:12;19.30;99.90
16253;DHT22;8234;41.480;2.306;2023-02-03T15:58:19;18.60;99.90
16253;DHT22;8234;41.480;2.306;2023-02-03T16:08:37;17.60;99.90
16253;DHT22;8234;41.480;2.306;2023-02-03T16:18:49;17.80;99.90
16253;DHT22;8234;41.480;2.306;2023-02-03T16:29:12;17.30;99.90
16253;DHT22;8234;41.480;2.306;2023-02-03T16:39:33;16.70;99.90
16253;DHT22;8234;41.480;2.306;2023-02-03T16:49:56;14.70;99.90
16253;DHT22;8234;41.480;2.306;2023-02-03T17:00:27;14.00;99.90
16253;DHT22;8234;41.480;2.306;2023-02-03T17:10:33;13.20;99.90
16253;DHT22;8234;41.480;2.306;2023-02-03T17:20:38;12.50;99.90
16253;DHT22;8234;41.480;2.306;2023-02-03T17:30:45;12.00;99.90
16253;DHT22;8234;41.480;2.306;2023-02-03T17:40:57;11.70;99.90
16253;DHT22;8234;41.480;2.306;2023-02-03T17:51:22;11.10;99.90
16253;DHT22;8234;41.480;2.306;2023-02-03T18:01:44;10.90;99.90
16253;DHT22;8234;41.480;2.306;2023-02-03T18:11:50;10.70;99.90
16253;DHT22;8234;41.480;2.306;2023-02-03T18:21:54;10.40;99.90
16253;DHT22;8234;41.480;2.306;2023-02-03T18:32:00;10.30;99.90
16253;DHT22;8234;41.480;2.306;2023-02-03T18:42:04;9.90;99.90
16253;DHT22;8234;41.480;2.306;2023-02-03T18:52:10;9.60;99.90
16253;DHT22;8234;41.480;2.306;2023-02-03T19:02:14;9.50;99.90
16253;DHT22;8234;41.480;2.306;2023-02-03T19:12:20;9.20;99.90
16253;DHT22;8234;41.480;2.306;2023-02-03T19:22:24;9.00;99.90
16253;DHT22;8234;41.480;2.306;2023-02-03T19:32:30;9.00;99.90
16253;DHT22;8234;41.480;2.306;2023-02-03T19:42:33;8.70;99.90
16253;DHT22;8234;41.480;2.306;2023-02-03T19:52:39;8.80;99.90
16253;DHT22;8234;41.480;2.306;2023-02-03T20:02:44;8.60;99.90
16253;DHT22;8234;41.480;2.306;2023-02-03T20:12:49;8.60;99.90
16253;DHT22;8234;41.480;2.306;2023-02-03T20:22:53;8.30;99.90
16253;DHT22;8234;41.480;2.306;2023-02-03T20:32:59;8.40;99.90
16253;DHT22;8234;41.480;2.306;2023-02-03T20:43:07;8.10;99.90
16253;DHT22;8234;41.480;2.306;2023-02-03T20:53:18;7.80;99.90
16253;DHT22;8234;41.480;2.306;2023-02-03T21:03:23;7.80;99.90
16253;DHT22;8234;41.480;2.306;2023-02-03T21:13:47;7.80;99.90
16253;DHT22;8234;41.480;2.306;2023-02-03T21:23:51;7.50;99.90
16253;DHT22;8234;41.480;2.306;2023-02-03T21:33:58;7.80;99.90
16253;DHT22;8234;41.480;2.306;2023-02-03T21:44:26;7.80;99.90
16253;DHT22;8234;41.480;2.306;2023-02-03T21:54:32;8.30;99.90
16253;DHT22;8234;41.480;2.306;2023-02-03T22:04:38;9.30;99.90
16253;DHT22;8234;41.480;2.306;2023-02-03T22:14:43;9.90;99.90
16253;DHT22;8234;41.480;2.306;2023-02-03T22:24:47;10.30;99.90
16253;DHT22;8234;41.480;2.306;2023-02-03T22:34:52;10.80;99.90
16253;DHT22;8234;41.480;2.306;2023-02-03T22:44:58;11.00;99.90
16253;DHT22;8234;41.480;2.306;2023-02-03T22:55:05;11.10;99.90
16253;DHT22;8234;41.480;2.306;2023-02-03T23:05:09;10.50;99.90
16253;DHT22;8234;41.480;2.306;2023-02-03T23:15:15;10.10;99.90
16253;DHT22;8234;41.480;2.306;2023-02-03T23:25:20;9.80;99.90
16253;DHT22;8234;41.480;2.306;2023-02-03T23:35:25;9.80;99.90
16253;DHT22;8234;41.480;2.306;2023-02-03T23:45:46;9.60;99.90
16253;DHT22;8234;41.480;2.306;2023-02-03T23:55:51;9.60;99.90
